Zim Luanda — 9HA2029 — position and weather

sailwx.info

Track history (hours):
 
Tides and Currents Weather Stations Pressure Air Temp Water Temp Dewpoint Dewpoint Depression Visibility Wind Speed Wind Dir Waves Ship Positions

Zim Luanda

Last reported at 2015-Feb-01 22:33 UTC. Time now 2015-Feb-01 22:43 UTC.
Position N 41°08' E 001°60'.

Length 260 m; draft 12.2 m.

Type: Ship (hazmat cat A). MMSI: 249830000.

Date/timePositionNaut miles runAvg speedWind from/ knotsBaromVisibWave heightAir tempDewpointWater temp
2015-Feb-01 22:33N 41°08' E 001°60'1210.8
2015-Feb-01 21:25N 41°18' E 002°10'1 0.1
2015-Feb-01 08:12N 41°18' E 002°11'6 7.9
2015-Feb-01 07:28N 41°14' E 002°15'1 0.6
2015-Feb-01 06:29N 41°13' E 002°15'2 1.7
2015-Feb-01 05:31N 41°14' E 002°13'24 1.0
2015-Jan-31 06:10N 41°06' E 001°43'914.3
2015-Jan-31 05:33N 41°08' E 001°54'1514.6
2015-Jan-31 04:31N 41°11' E 002°14'1514.6
2015-Jan-31 03:29N 41°17' E 002°32'7615.1
2015-Jan-30 22:28N 41°53' E 004°01'2015.5
2015-Jan-30 21:09N 42°03' E 004°26'1014.2
2015-Jan-30 20:28N 42°07' E 004°37'10114.6
2015-Jan-30 13:33N 42°56' E 006°37'1615.6
2015-Jan-30 12:32N 43°05' E 006°55'1514.9
2015-Jan-30 11:33N 43°14' E 007°11'1515.0
2015-Jan-30 10:32N 43°23' E 007°28'1615.8
2015-Jan-30 09:30N 43°33' E 007°46'3216.4
2015-Jan-30 07:33N 43°53' E 008°20'2116.8
2015-Jan-30 06:17N 44°08' E 008°41'1216.7
2015-Jan-30 05:33N 44°17' E 008°53'8 7.6
2015-Jan-30 04:33N 44°24' E 008°54'0 0.1
2015-Jan-30 03:33N 44°24' E 008°54'0 0.0
2015-Jan-30 02:33N 44°24' E 008°54'0 0.0
2015-Jan-30 01:33N 44°24' E 008°54'0 0.0
2015-Jan-30 00:33N 44°24' E 008°54'0 0.0
2015-Jan-29 23:33N 44°24' E 008°54'0 0.0
2015-Jan-29 22:33N 44°24' E 008°54'0 0.0
2015-Jan-29 21:33N 44°24' E 008°54'0 0.0
2015-Jan-29 20:33N 44°24' E 008°54'0 0.0
2015-Jan-29 19:33N 44°24' E 008°54'0 0.0
2015-Jan-29 18:33N 44°24' E 008°54'0 0.0
2015-Jan-29 17:33N 44°24' E 008°54'0 0.0
2015-Jan-29 16:33N 44°24' E 008°54'0 0.0
2015-Jan-29 15:33N 44°24' E 008°54'0 0.0
2015-Jan-29 14:33N 44°24' E 008°54'0 0.0
2015-Jan-29 13:33N 44°24' E 008°54'0 0.0
2015-Jan-29 12:33N 44°24' E 008°54'0 0.0
2015-Jan-29 11:33N 44°24' E 008°54'0 0.0
2015-Jan-29 10:33N 44°24' E 008°54'0 0.0
2015-Jan-29 09:33N 44°24' E 008°54'0 0.0
2015-Jan-29 08:33N 44°24' E 008°54'0 0.0
2015-Jan-29 07:33N 44°24' E 008°54'0 0.2
2015-Jan-29 06:33N 44°24' E 008°54'5 4.7
2015-Jan-29 05:34N 44°21' E 008°59'4 3.7
2015-Jan-29 04:33N 44°18' E 009°02'3 3.3
2015-Jan-29 03:33N 44°15' E 009°04'1111.2
2015-Jan-29 02:33N 44°06' E 009°14'1211.8
2015-Jan-29 01:33N 43°57' E 009°24'1211.9
2015-Jan-29 00:33N 43°48' E 009°35'1110.9
2015-Jan-28 23:33N 43°39' E 009°44'1110.9
2015-Jan-28 22:33N 43°31' E 009°54'1111.2
2015-Jan-28 21:33N 43°31' E 010°10'7 7.1
2015-Jan-28 20:34N 43°34' E 010°18'1 0.5
2015-Jan-28 19:33N 43°35' E 010°18'0 0.0
2015-Jan-28 18:33N 43°35' E 010°18'0 0.0
2015-Jan-28 17:33N 43°35' E 010°18'0 0.0
2015-Jan-28 16:33N 43°35' E 010°18'0 0.0
2015-Jan-28 15:33N 43°35' E 010°18'0 0.0
2015-Jan-28 14:33N 43°35' E 010°18'0 0.0
2015-Jan-28 13:33N 43°35' E 010°18'0 0.0
2015-Jan-28 12:33N 43°35' E 010°18'0 0.0
2015-Jan-28 11:33N 43°35' E 010°18'0 0.0
2015-Jan-28 10:33N 43°35' E 010°18'0 0.0
2015-Jan-28 09:30N 43°35' E 010°18'0 0.0
2015-Jan-28 08:33N 43°35' E 010°18'0 0.0
2015-Jan-28 07:30N 43°35' E 010°18'0 0.0
2015-Jan-28 06:33N 43°35' E 010°18'2 2.4
2015-Jan-28 05:33N 43°32' E 010°17'6 5.6
2015-Jan-28 04:33N 43°28' E 010°13'1211.6
2015-Jan-28 03:33N 43°16' E 010°10'1413.7
2015-Jan-28 02:33N 43°03' E 010°07'2713.0
2015-Jan-28 00:29N 42°36' E 010°14'1414.5
2015-Jan-27 23:30N 42°26' E 010°27'  
2015-Jan-25 19:22N 36°45' E 023°21'4215.0
2015-Jan-25 16:33N 37°25' E 023°38'1515.3
2015-Jan-25 15:33N 37°40' E 023°42'1514.5
2015-Jan-25 14:33N 37°54' E 023°36'4 2.5
2015-Jan-25 13:10N 37°57' E 023°35'0 0.0
2015-Jan-25 11:16N 37°57' E 023°35'0 0.0
2015-Jan-25 10:31N 37°57' E 023°35'0 0.0
2015-Jan-25 09:22N 37°57' E 023°35'0 0.0
2015-Jan-25 08:31N 37°57' E 023°35'0 0.0
2015-Jan-25 07:25N 37°57' E 023°35'0 0.0
2015-Jan-25 05:05N 37°57' E 023°35'0 0.0
2015-Jan-25 03:31N 37°57' E 023°35'0 0.0
2015-Jan-25 02:19N 37°57' E 023°35'0 0.0
2015-Jan-25 01:31N 37°57' E 023°35'0 0.0
2015-Jan-25 00:31N 37°57' E 023°35'0 0.0
2015-Jan-24 23:28N 37°57' E 023°35'0 0.0
2015-Jan-24 22:31N 37°57' E 023°35'0 0.0
2015-Jan-24 21:31N 37°57' E 023°35'0 0.0
2015-Jan-24 20:31N 37°57' E 023°35'0 0.0
2015-Jan-24 19:31N 37°57' E 023°35'0 0.0
2015-Jan-24 18:31N 37°57' E 023°35'0 0.0
2015-Jan-24 17:31N 37°57' E 023°35'0 0.0
2015-Jan-24 16:31N 37°57' E 023°35'0 0.0
2015-Jan-24 15:33N 37°57' E 023°35'5 5.1
2015-Jan-24 14:33N 37°53' E 023°38'1313.3
2015-Jan-24 13:33N 37°41' E 023°45'1514.9
2015-Jan-24 12:32N 37°30' E 023°58'6816.1
2015-Jan-24 08:19N 36°36' E 024°51'1616.6
2015-Jan-24 07:21N 36°26' E 025°06'1316.8
2015-Jan-24 06:33N 36°17' E 025°19'1717.4
2015-Jan-24 05:33N 36°07' E 025°36'1717.0
2015-Jan-24 04:32N 35°56' E 025°53'46817.3
2015-Jan-23 01:24N 32°57' E 034°38'1315.2
2015-Jan-23 00:33N 32°54' E 034°53'  
Track history (hours):
 
Tides and Currents Weather Stations Pressure Air Temp Water Temp Dewpoint Dewpoint Depression Visibility Wind Speed Wind Dir Waves Ship Positions

Zim Luanda

Last reported at 2015-Feb-01 22:33 UTC. Time now 2015-Feb-01 22:43 UTC.
Position N 41°08' E 001°60'.

Length 260 m; draft 12.2 m.

Type: Ship (hazmat cat A). MMSI: 249830000.

Date/timePositionNaut miles runAvg speedWind from/ knotsBaromVisibWave heightAir tempDewpointWater temp
2015-Feb-01 22:33N 41°08' E 001°60'1210.8
2015-Feb-01 21:25N 41°18' E 002°10'1 0.1
2015-Feb-01 08:12N 41°18' E 002°11'6 7.9
2015-Feb-01 07:28N 41°14' E 002°15'1 0.6
2015-Feb-01 06:29N 41°13' E 002°15'2 1.7
2015-Feb-01 05:31N 41°14' E 002°13'24 1.0
2015-Jan-31 06:10N 41°06' E 001°43'914.3
2015-Jan-31 05:33N 41°08' E 001°54'1514.6
2015-Jan-31 04:31N 41°11' E 002°14'1514.6
2015-Jan-31 03:29N 41°17' E 002°32'7615.1
2015-Jan-30 22:28N 41°53' E 004°01'2015.5
2015-Jan-30 21:09N 42°03' E 004°26'1014.2
2015-Jan-30 20:28N 42°07' E 004°37'10114.6
2015-Jan-30 13:33N 42°56' E 006°37'1615.6
2015-Jan-30 12:32N 43°05' E 006°55'1514.9
2015-Jan-30 11:33N 43°14' E 007°11'1515.0
2015-Jan-30 10:32N 43°23' E 007°28'1615.8
2015-Jan-30 09:30N 43°33' E 007°46'3216.4
2015-Jan-30 07:33N 43°53' E 008°20'2116.8
2015-Jan-30 06:17N 44°08' E 008°41'1216.7
2015-Jan-30 05:33N 44°17' E 008°53'8 7.6
2015-Jan-30 04:33N 44°24' E 008°54'0 0.1
2015-Jan-30 03:33N 44°24' E 008°54'0 0.0
2015-Jan-30 02:33N 44°24' E 008°54'0 0.0
2015-Jan-30 01:33N 44°24' E 008°54'0 0.0
2015-Jan-30 00:33N 44°24' E 008°54'0 0.0
2015-Jan-29 23:33N 44°24' E 008°54'0 0.0
2015-Jan-29 22:33N 44°24' E 008°54'0 0.0
2015-Jan-29 21:33N 44°24' E 008°54'0 0.0
2015-Jan-29 20:33N 44°24' E 008°54'0 0.0
2015-Jan-29 19:33N 44°24' E 008°54'0 0.0
2015-Jan-29 18:33N 44°24' E 008°54'0 0.0
2015-Jan-29 17:33N 44°24' E 008°54'0 0.0
2015-Jan-29 16:33N 44°24' E 008°54'0 0.0
2015-Jan-29 15:33N 44°24' E 008°54'0 0.0
2015-Jan-29 14:33N 44°24' E 008°54'0 0.0
2015-Jan-29 13:33N 44°24' E 008°54'0 0.0
2015-Jan-29 12:33N 44°24' E 008°54'0 0.0
2015-Jan-29 11:33N 44°24' E 008°54'0 0.0
2015-Jan-29 10:33N 44°24' E 008°54'0 0.0
2015-Jan-29 09:33N 44°24' E 008°54'0 0.0
2015-Jan-29 08:33N 44°24' E 008°54'0 0.0
2015-Jan-29 07:33N 44°24' E 008°54'0 0.2
2015-Jan-29 06:33N 44°24' E 008°54'5 4.7
2015-Jan-29 05:34N 44°21' E 008°59'4 3.7
2015-Jan-29 04:33N 44°18' E 009°02'3 3.3
2015-Jan-29 03:33N 44°15' E 009°04'1111.2
2015-Jan-29 02:33N 44°06' E 009°14'1211.8
2015-Jan-29 01:33N 43°57' E 009°24'1211.9
2015-Jan-29 00:33N 43°48' E 009°35'1110.9
2015-Jan-28 23:33N 43°39' E 009°44'1110.9
2015-Jan-28 22:33N 43°31' E 009°54'1111.2
2015-Jan-28 21:33N 43°31' E 010°10'7 7.1
2015-Jan-28 20:34N 43°34' E 010°18'1 0.5
2015-Jan-28 19:33N 43°35' E 010°18'0 0.0
2015-Jan-28 18:33N 43°35' E 010°18'0 0.0
2015-Jan-28 17:33N 43°35' E 010°18'0 0.0
2015-Jan-28 16:33N 43°35' E 010°18'0 0.0
2015-Jan-28 15:33N 43°35' E 010°18'0 0.0
2015-Jan-28 14:33N 43°35' E 010°18'0 0.0
2015-Jan-28 13:33N 43°35' E 010°18'0 0.0
2015-Jan-28 12:33N 43°35' E 010°18'0 0.0
2015-Jan-28 11:33N 43°35' E 010°18'0 0.0
2015-Jan-28 10:33N 43°35' E 010°18'0 0.0
2015-Jan-28 09:30N 43°35' E 010°18'0 0.0
2015-Jan-28 08:33N 43°35' E 010°18'0 0.0
2015-Jan-28 07:30N 43°35' E 010°18'0 0.0
2015-Jan-28 06:33N 43°35' E 010°18'2 2.4
2015-Jan-28 05:33N 43°32' E 010°17'6 5.6
2015-Jan-28 04:33N 43°28' E 010°13'1211.6
2015-Jan-28 03:33N 43°16' E 010°10'1413.7
2015-Jan-28 02:33N 43°03' E 010°07'2713.0
2015-Jan-28 00:29N 42°36' E 010°14'1414.5
2015-Jan-27 23:30N 42°26' E 010°27'  
2015-Jan-25 19:22N 36°45' E 023°21'4215.0
2015-Jan-25 16:33N 37°25' E 023°38'1515.3
2015-Jan-25 15:33N 37°40' E 023°42'1514.5
2015-Jan-25 14:33N 37°54' E 023°36'4 2.5
2015-Jan-25 13:10N 37°57' E 023°35'0 0.0
2015-Jan-25 11:16N 37°57' E 023°35'0 0.0
2015-Jan-25 10:31N 37°57' E 023°35'0 0.0
2015-Jan-25 09:22N 37°57' E 023°35'0 0.0
2015-Jan-25 08:31N 37°57' E 023°35'0 0.0
2015-Jan-25 07:25N 37°57' E 023°35'0 0.0
2015-Jan-25 05:05N 37°57' E 023°35'0 0.0
2015-Jan-25 03:31N 37°57' E 023°35'0 0.0
2015-Jan-25 02:19N 37°57' E 023°35'0 0.0
2015-Jan-25 01:31N 37°57' E 023°35'0 0.0
2015-Jan-25 00:31N 37°57' E 023°35'0 0.0
2015-Jan-24 23:28N 37°57' E 023°35'0 0.0
2015-Jan-24 22:31N 37°57' E 023°35'0 0.0
2015-Jan-24 21:31N 37°57' E 023°35'0 0.0
2015-Jan-24 20:31N 37°57' E 023°35'0 0.0
2015-Jan-24 19:31N 37°57' E 023°35'0 0.0
2015-Jan-24 18:31N 37°57' E 023°35'0 0.0
2015-Jan-24 17:31N 37°57' E 023°35'0 0.0
2015-Jan-24 16:31N 37°57' E 023°35'0 0.0
2015-Jan-24 15:33N 37°57' E 023°35'5 5.1
2015-Jan-24 14:33N 37°53' E 023°38'1313.3
2015-Jan-24 13:33N 37°41' E 023°45'1514.9
2015-Jan-24 12:32N 37°30' E 023°58'6816.1
2015-Jan-24 08:19N 36°36' E 024°51'1616.6
2015-Jan-24 07:21N 36°26' E 025°06'1316.8
2015-Jan-24 06:33N 36°17' E 025°19'1717.4
2015-Jan-24 05:33N 36°07' E 025°36'1717.0
2015-Jan-24 04:32N 35°56' E 025°53'46817.3
2015-Jan-23 01:24N 32°57' E 034°38'1315.2
2015-Jan-23 00:33N 32°54' E 034°53'  

Dump ship's entire track history